AAL15 KLAX-KPHX
Flight info
| Callsign | AAL15 |
|---|---|
| Flight time | N/A |
| Altitude | 31000 |
| Route | DOTSS2 CNERY BLH HYDRR1 |
| Aircraft | B738/M-SDE2E3FGHIRWXY/LB1 |
Departure
| Time | 2026-05-06 04:28 |
|---|---|
| Airport | Los Angeles International Airport (KLAX) |
Arrival
| Time | N/A |
|---|---|
| Airport | Phoenix Sky Harbor International Airport (KPHX) |
| Time | Latitude | Longitude | Altitude | Speed | Heading |
|---|---|---|---|---|---|
| 2026-05-06 03:52 | 33.93962 | -118.40604 | 126 ft | 0 kts | 322° |
| 2026-05-06 04:11 | 33.93955 | -118.40594 | 126 ft | 2 kts | 290° |
| 2026-05-06 04:11 | 33.93953 | -118.40576 | 126 ft | 2 kts | 256° |
| 2026-05-06 04:11 | 33.93960 | -118.40559 | 126 ft | 2 kts | 221° |
| 2026-05-06 04:12 | 33.93973 | -118.40552 | 126 ft | 2 kts | 186° |
| 2026-05-06 04:12 | 33.93988 | -118.40553 | 126 ft | 2 kts | 168° |
| 2026-05-06 04:12 | 33.93994 | -118.40555 | 126 ft | 0 kts | 173° |
| 2026-05-06 04:20 | 33.93975 | -118.40551 | 126 ft | 4 kts | 171° |
| 2026-05-06 04:21 | 33.93944 | -118.40546 | 126 ft | 4 kts | 172° |
| 2026-05-06 04:21 | 33.93914 | -118.40540 | 126 ft | 4 kts | 172° |
| 2026-05-06 04:21 | 33.93883 | -118.40535 | 126 ft | 5 kts | 172° |
| 2026-05-06 04:21 | 33.93850 | -118.40526 | 126 ft | 5 kts | 152° |
| 2026-05-06 04:22 | 33.93834 | -118.40487 | 125 ft | 9 kts | 94° |
| 2026-05-06 04:22 | 33.93840 | -118.40387 | 124 ft | 10 kts | 83° |
| 2026-05-06 04:22 | 33.93850 | -118.40306 | 123 ft | 10 kts | 82° |
| 2026-05-06 04:23 | 33.93868 | -118.40134 | 121 ft | 11 kts | 83° |
| 2026-05-06 04:23 | 33.93878 | -118.40036 | 119 ft | 11 kts | 83° |
| 2026-05-06 04:23 | 33.93888 | -118.39934 | 118 ft | 12 kts | 83° |
| 2026-05-06 04:23 | 33.93900 | -118.39825 | 116 ft | 13 kts | 82° |
| 2026-05-06 04:24 | 33.93911 | -118.39721 | 115 ft | 13 kts | 83° |
| 2026-05-06 04:24 | 33.93924 | -118.39604 | 113 ft | 14 kts | 83° |
| 2026-05-06 04:24 | 33.93935 | -118.39483 | 112 ft | 14 kts | 84° |
| 2026-05-06 04:24 | 33.93946 | -118.39359 | 111 ft | 15 kts | 84° |
| 2026-05-06 04:25 | 33.93957 | -118.39242 | 109 ft | 15 kts | 83° |
| 2026-05-06 04:25 | 33.93971 | -118.39114 | 108 ft | 15 kts | 82° |
| 2026-05-06 04:25 | 33.93986 | -118.38990 | 108 ft | 15 kts | 83° |
| 2026-05-06 04:25 | 33.93998 | -118.38867 | 107 ft | 14 kts | 83° |
| 2026-05-06 04:26 | 33.94009 | -118.38759 | 106 ft | 14 kts | 84° |
| 2026-05-06 04:26 | 33.94020 | -118.38631 | 106 ft | 14 kts | 84° |
| 2026-05-06 04:26 | 33.94034 | -118.38514 | 105 ft | 14 kts | 82° |
| 2026-05-06 04:26 | 33.94048 | -118.38398 | 104 ft | 13 kts | 82° |
| 2026-05-06 04:27 | 33.94060 | -118.38292 | 104 ft | 13 kts | 82° |
| 2026-05-06 04:27 | 33.94071 | -118.38180 | 104 ft | 13 kts | 85° |
| 2026-05-06 04:27 | 33.94074 | -118.38074 | 103 ft | 10 kts | 97° |
| 2026-05-06 04:27 | 33.94041 | -118.38017 | 103 ft | 9 kts | 167° |
| 2026-05-06 04:28 | 33.93984 | -118.38079 | 103 ft | 22 kts | 256° |
| 2026-05-06 04:28 | 33.93916 | -118.38693 | 106 ft | 117 kts | 263° |
| 2026-05-06 04:28 | 33.93781 | -118.39941 | 241 ft | 176 kts | 263° |
| 2026-05-06 04:28 | 33.93607 | -118.41457 | 1126 ft | 191 kts | 259° |
| 2026-05-06 04:29 | 33.93375 | -118.43041 | 1960 ft | 205 kts | 266° |
| 2026-05-06 04:29 | 33.93273 | -118.44784 | 2653 ft | 219 kts | 263° |
| 2026-05-06 04:29 | 33.92841 | -118.46629 | 3081 ft | 246 kts | 244° |
| 2026-05-06 04:29 | 33.91798 | -118.48287 | 4080 ft | 246 kts | 229° |
| 2026-05-06 04:30 | 33.90641 | -118.49793 | 4775 ft | 256 kts | 229° |
| 2026-05-06 04:30 | 33.89433 | -118.51395 | 4967 ft | 257 kts | 230° |
| 2026-05-06 04:30 | 33.88237 | -118.53059 | 5192 ft | 274 kts | 230° |
| 2026-05-06 04:30 | 33.86911 | -118.54663 | 6307 ft | 270 kts | 219° |
| 2026-05-06 04:31 | 33.85271 | -118.55662 | 7314 ft | 272 kts | 194° |
| 2026-05-06 04:31 | 33.83345 | -118.55792 | 7956 ft | 288 kts | 170° |
| 2026-05-06 04:31 | 33.81364 | -118.55255 | 8827 ft | 294 kts | 164° |
| 2026-05-06 04:31 | 33.79377 | -118.54674 | 9709 ft | 301 kts | 165° |
| 2026-05-06 04:32 | 33.77322 | -118.54111 | 10558 ft | 308 kts | 165° |
| 2026-05-06 04:32 | 33.75156 | -118.53532 | 11127 ft | 325 kts | 165° |
| 2026-05-06 04:32 | 33.72942 | -118.52798 | 11705 ft | 339 kts | 158° |
| 2026-05-06 04:32 | 33.70828 | -118.51421 | 12234 ft | 351 kts | 139° |
| 2026-05-06 04:33 | 33.69181 | -118.49249 | 12799 ft | 359 kts | 121° |
| 2026-05-06 04:33 | 33.68039 | -118.46552 | 12951 ft | 363 kts | 110° |
| 2026-05-06 04:33 | 33.67153 | -118.43711 | 12966 ft | 357 kts | 107° |
| 2026-05-06 04:33 | 33.66340 | -118.40908 | 12968 ft | 357 kts | 106° |
| 2026-05-06 04:34 | 33.65530 | -118.38077 | 13712 ft | 363 kts | 107° |
| 2026-05-06 04:34 | 33.64756 | -118.35232 | 14751 ft | 361 kts | 102° |
| 2026-05-06 04:34 | 33.64330 | -118.32259 | 15574 ft | 363 kts | 92° |
| 2026-05-06 04:34 | 33.64236 | -118.29260 | 16452 ft | 365 kts | 87° |
| 2026-05-06 04:35 | 33.64279 | -118.26202 | 17227 ft | 370 kts | 86° |
| 2026-05-06 04:35 | 33.64358 | -118.23103 | 18043 ft | 373 kts | 86° |
| 2026-05-06 04:35 | 33.64424 | -118.20010 | 18838 ft | 376 kts | 86° |
| 2026-05-06 04:35 | 33.64460 | -118.16886 | 19641 ft | 379 kts | 86° |
| 2026-05-06 04:36 | 33.64472 | -118.13737 | 20451 ft | 381 kts | 87° |
| 2026-05-06 04:36 | 33.64475 | -118.10534 | 21078 ft | 387 kts | 87° |
| 2026-05-06 04:36 | 33.64473 | -118.07294 | 21850 ft | 389 kts | 87° |
| 2026-05-06 04:36 | 33.64468 | -118.04012 | 22581 ft | 392 kts | 87° |
| 2026-05-06 04:37 | 33.64463 | -118.00738 | 23137 ft | 398 kts | 87° |
| 2026-05-06 04:37 | 33.64458 | -117.97436 | 23984 ft | 396 kts | 86° |
| 2026-05-06 04:37 | 33.64451 | -117.94096 | 24412 ft | 404 kts | 86° |
| 2026-05-06 04:37 | 33.64444 | -117.90752 | 25048 ft | 405 kts | 87° |
| 2026-05-06 04:38 | 33.64434 | -117.87401 | 25659 ft | 406 kts | 86° |
| 2026-05-06 04:38 | 33.64399 | -117.83982 | 25999 ft | 415 kts | 88° |
| 2026-05-06 04:38 | 33.64214 | -117.80481 | 26528 ft | 420 kts | 92° |
| 2026-05-06 04:38 | 33.63753 | -117.76998 | 27103 ft | 425 kts | 96° |
| 2026-05-06 04:39 | 33.63070 | -117.73546 | 27332 ft | 436 kts | 100° |
| 2026-05-06 04:39 | 33.62237 | -117.70050 | 28050 ft | 434 kts | 102° |
| 2026-05-06 04:39 | 33.61357 | -117.66582 | 28672 ft | 433 kts | 102° |
| 2026-05-06 04:39 | 33.60471 | -117.63139 | 29144 ft | 436 kts | 102° |
| 2026-05-06 04:40 | 33.59580 | -117.59662 | 29684 ft | 436 kts | 101° |
| 2026-05-06 04:40 | 33.58692 | -117.56173 | 30133 ft | 437 kts | 102° |
| 2026-05-06 04:40 | 33.57820 | -117.52712 | 30507 ft | 440 kts | 101° |
| 2026-05-06 04:40 | 33.56943 | -117.49217 | 30873 ft | 442 kts | 102° |
| 2026-05-06 04:41 | 33.56047 | -117.45634 | 31035 ft | 449 kts | 102° |
| 2026-05-06 04:41 | 33.54256 | -117.38462 | 31073 ft | 449 kts | 101° |
| 2026-05-06 04:41 | 33.53369 | -117.34934 | 31059 ft | 438 kts | 102° |
| 2026-05-06 04:42 | 33.52604 | -117.31889 | 31056 ft | 436 kts | 102° |
| 2026-05-06 04:42 | 33.50919 | -117.24356 | 31059 ft | 443 kts | 96° |
| 2026-05-06 04:43 | 33.50288 | -117.17172 | 31055 ft | 435 kts | 88° |
| 2026-05-06 04:43 | 33.50176 | -117.09916 | 31064 ft | 448 kts | 86° |
| 2026-05-06 04:44 | 33.50136 | -117.02902 | 31064 ft | 440 kts | 86° |
| 2026-05-06 04:44 | 33.50119 | -117.00881 | 31056 ft | 435 kts | 87° |